sensor_id;sensor_type;location;lat;lon;timestamp;temperature;humidity
35258;DHT22;21385;50.878;8.050;2022-11-11T00:01:09;6.30;99.90
35258;DHT22;21385;50.878;8.050;2022-11-11T00:03:36;6.30;99.90
35258;DHT22;21385;50.878;8.050;2022-11-11T00:06:03;6.30;99.90
35258;DHT22;21385;50.878;8.050;2022-11-11T00:08:29;6.20;99.90
35258;DHT22;21385;50.878;8.050;2022-11-11T00:11:06;6.20;99.90
35258;DHT22;21385;50.878;8.050;2022-11-11T00:13:33;6.20;99.90
35258;DHT22;21385;50.878;8.050;2022-11-11T00:16:15;6.20;99.90
35258;DHT22;21385;50.878;8.050;2022-11-11T00:18:42;6.20;99.90
35258;DHT22;21385;50.878;8.050;2022-11-11T00:21:27;6.10;99.90
35258;DHT22;21385;50.878;8.050;2022-11-11T00:24:26;6.10;99.90
35258;DHT22;21385;50.878;8.050;2022-11-11T00:27:11;6.10;99.90
35258;DHT22;21385;50.878;8.050;2022-11-11T00:29:37;6.00;99.90
35258;DHT22;21385;50.878;8.050;2022-11-11T00:32:04;6.00;99.90
35258;DHT22;21385;50.878;8.050;2022-11-11T00:34:49;6.00;99.90
35258;DHT22;21385;50.878;8.050;2022-11-11T00:37:34;6.00;99.90
35258;DHT22;21385;50.878;8.050;2022-11-11T00:40:03;6.00;99.90
35258;DHT22;21385;50.878;8.050;2022-11-11T00:42:28;6.00;99.90
35258;DHT22;21385;50.878;8.050;2022-11-11T00:44:55;5.90;99.90
35258;DHT22;21385;50.878;8.050;2022-11-11T00:47:20;5.90;99.90
35258;DHT22;21385;50.878;8.050;2022-11-11T00:50:08;5.80;99.90
35258;DHT22;21385;50.878;8.050;2022-11-11T00:52:52;5.80;99.90
35258;DHT22;21385;50.878;8.050;2022-11-11T00:55:18;5.80;99.90
35258;DHT22;21385;50.878;8.050;2022-11-11T00:57:43;5.70;99.90
35258;DHT22;21385;50.878;8.050;2022-11-11T01:00:09;5.70;99.90
35258;DHT22;21385;50.878;8.050;2022-11-11T01:02:35;5.70;99.90
35258;DHT22;21385;50.878;8.050;2022-11-11T01:05:01;5.60;99.90
35258;DHT22;21385;50.878;8.050;2022-11-11T01:07:26;5.60;99.90
35258;DHT22;21385;50.878;8.050;2022-11-11T01:09:52;5.60;99.90
35258;DHT22;21385;50.878;8.050;2022-11-11T01:12:17;5.70;99.90
35258;DHT22;21385;50.878;8.050;2022-11-11T01:14:46;5.70;99.90
35258;DHT22;21385;50.878;8.050;2022-11-11T01:17:12;5.80;99.90
35258;DHT22;21385;50.878;8.050;2022-11-11T01:19:37;5.80;99.90
35258;DHT22;21385;50.878;8.050;2022-11-11T01:22:03;5.80;99.90
35258;DHT22;21385;50.878;8.050;2022-11-11T01:24:29;5.70;99.90
35258;DHT22;21385;50.878;8.050;2022-11-11T01:26:54;5.60;99.90
35258;DHT22;21385;50.878;8.050;2022-11-11T01:29:20;5.60;99.90
35258;DHT22;21385;50.878;8.050;2022-11-11T01:31:46;5.60;99.90
35258;DHT22;21385;50.878;8.050;2022-11-11T01:34:11;5.60;99.90
35258;DHT22;21385;50.878;8.050;2022-11-11T01:36:37;5.70;99.90
35258;DHT22;21385;50.878;8.050;2022-11-11T01:39:03;5.70;99.90
35258;DHT22;21385;50.878;8.050;2022-11-11T01:41:31;5.70;99.90
35258;DHT22;21385;50.878;8.050;2022-11-11T01:43:58;5.70;99.90
35258;DHT22;21385;50.878;8.050;2022-11-11T01:46:34;5.80;99.90
35258;DHT22;21385;50.878;8.050;2022-11-11T01:51:48;5.70;99.90
35258;DHT22;21385;50.878;8.050;2022-11-11T01:54:20;5.60;99.90
35258;DHT22;21385;50.878;8.050;2022-11-11T01:56:50;5.60;99.90
35258;DHT22;21385;50.878;8.050;2022-11-11T01:59:18;5.50;99.90
35258;DHT22;21385;50.878;8.050;2022-11-11T02:01:44;5.50;99.90
35258;DHT22;21385;50.878;8.050;2022-11-11T02:04:13;5.50;99.90
35258;DHT22;21385;50.878;8.050;2022-11-11T02:07:01;5.60;99.90
35258;DHT22;21385;50.878;8.050;2022-11-11T02:09:28;5.70;99.90
35258;DHT22;21385;50.878;8.050;2022-11-11T02:11:57;5.70;99.90
35258;DHT22;21385;50.878;8.050;2022-11-11T02:14:44;5.70;99.90
35258;DHT22;21385;50.878;8.050;2022-11-11T02:17:13;5.70;99.90
35258;DHT22;21385;50.878;8.050;2022-11-11T02:19:42;5.70;99.90
35258;DHT22;21385;50.878;8.050;2022-11-11T02:22:13;5.70;99.90
35258;DHT22;21385;50.878;8.050;2022-11-11T02:24:41;5.70;99.90
35258;DHT22;21385;50.878;8.050;2022-11-11T02:27:09;5.70;99.90
35258;DHT22;21385;50.878;8.050;2022-11-11T02:29:37;5.70;99.90
35258;DHT22;21385;50.878;8.050;2022-11-11T02:32:03;5.70;99.90
35258;DHT22;21385;50.878;8.050;2022-11-11T02:34:30;5.60;99.90
35258;DHT22;21385;50.878;8.050;2022-11-11T02:36:57;5.60;99.90
35258;DHT22;21385;50.878;8.050;2022-11-11T02:39:25;5.60;99.90
35258;DHT22;21385;50.878;8.050;2022-11-11T02:41:51;5.50;99.90
35258;DHT22;21385;50.878;8.050;2022-11-11T02:44:25;5.50;99.90
35258;DHT22;21385;50.878;8.050;2022-11-11T02:46:52;5.50;99.90
35258;DHT22;21385;50.878;8.050;2022-11-11T02:49:17;5.60;99.90
35258;DHT22;21385;50.878;8.050;2022-11-11T02:51:43;5.50;99.90
35258;DHT22;21385;50.878;8.050;2022-11-11T02:54:12;5.50;99.90
35258;DHT22;21385;50.878;8.050;2022-11-11T02:56:37;5.50;99.90
35258;DHT22;21385;50.878;8.050;2022-11-11T02:59:22;5.50;99.90
35258;DHT22;21385;50.878;8.050;2022-11-11T03:01:47;5.50;99.90
35258;DHT22;21385;50.878;8.050;2022-11-11T03:04:16;5.50;99.90
35258;DHT22;21385;50.878;8.050;2022-11-11T03:06:42;5.50;99.90
35258;DHT22;21385;50.878;8.050;2022-11-11T03:09:07;5.50;99.90
35258;DHT22;21385;50.878;8.050;2022-11-11T03:14:03;5.40;99.90
35258;DHT22;21385;50.878;8.050;2022-11-11T03:16:29;5.50;99.90
35258;DHT22;21385;50.878;8.050;2022-11-11T03:19:13;5.40;99.90
35258;DHT22;21385;50.878;8.050;2022-11-11T03:21:41;5.40;99.90
35258;DHT22;21385;50.878;8.050;2022-11-11T03:24:07;5.40;99.90
35258;DHT22;21385;50.878;8.050;2022-11-11T03:26:33;5.30;99.90
35258;DHT22;21385;50.878;8.050;2022-11-11T03:28:58;5.30;99.90
35258;DHT22;21385;50.878;8.050;2022-11-11T03:31:24;5.20;99.90
35258;DHT22;21385;50.878;8.050;2022-11-11T03:33:49;5.10;99.90
35258;DHT22;21385;50.878;8.050;2022-11-11T03:36:15;5.10;99.90
35258;DHT22;21385;50.878;8.050;2022-11-11T03:38:40;5.00;99.90
35258;DHT22;21385;50.878;8.050;2022-11-11T03:41:06;5.00;99.90
35258;DHT22;21385;50.878;8.050;2022-11-11T03:43:33;5.00;99.90
35258;DHT22;21385;50.878;8.050;2022-11-11T03:46:03;5.10;99.90
35258;DHT22;21385;50.878;8.050;2022-11-11T03:48:32;5.00;99.90
35258;DHT22;21385;50.878;8.050;2022-11-11T03:50:58;4.90;99.90
35258;DHT22;21385;50.878;8.050;2022-11-11T03:53:23;4.90;99.90
35258;DHT22;21385;50.878;8.050;2022-11-11T03:55:50;5.00;99.90
35258;DHT22;21385;50.878;8.050;2022-11-11T03:58:17;5.00;99.90
35258;DHT22;21385;50.878;8.050;2022-11-11T04:00:43;4.90;99.90
35258;DHT22;21385;50.878;8.050;2022-11-11T04:03:14;4.90;99.90
35258;DHT22;21385;50.878;8.050;2022-11-11T04:05:59;4.90;99.90
35258;DHT22;21385;50.878;8.050;2022-11-11T04:08:44;4.90;99.90
35258;DHT22;21385;50.878;8.050;2022-11-11T04:11:31;5.00;99.90
35258;DHT22;21385;50.878;8.050;2022-11-11T04:14:10;5.00;99.90
35258;DHT22;21385;50.878;8.050;2022-11-11T04:16:55;5.00;99.90
35258;DHT22;21385;50.878;8.050;2022-11-11T04:19:21;5.00;99.90
35258;DHT22;21385;50.878;8.050;2022-11-11T04:22:05;5.00;99.90
35258;DHT22;21385;50.878;8.050;2022-11-11T04:24:37;5.00;99.90
35258;DHT22;21385;50.878;8.050;2022-11-11T04:27:21;5.00;99.90
35258;DHT22;21385;50.878;8.050;2022-11-11T04:29:47;4.90;99.90
35258;DHT22;21385;50.878;8.050;2022-11-11T04:32:20;4.90;99.90
35258;DHT22;21385;50.878;8.050;2022-11-11T04:35:11;4.90;99.90
35258;DHT22;21385;50.878;8.050;2022-11-11T04:37:45;4.90;99.90
35258;DHT22;21385;50.878;8.050;2022-11-11T04:40:11;4.90;99.90
35258;DHT22;21385;50.878;8.050;2022-11-11T04:42:56;4.90;99.90
35258;DHT22;21385;50.878;8.050;2022-11-11T04:45:21;4.90;99.90
35258;DHT22;21385;50.878;8.050;2022-11-11T04:47:56;4.80;99.90
35258;DHT22;21385;50.878;8.050;2022-11-11T04:50:24;4.80;99.90
35258;DHT22;21385;50.878;8.050;2022-11-11T04:52:50;4.80;99.90
35258;DHT22;21385;50.878;8.050;2022-11-11T04:55:16;4.70;99.90
35258;DHT22;21385;50.878;8.050;2022-11-11T04:58:00;4.70;99.90
35258;DHT22;21385;50.878;8.050;2022-11-11T05:00:26;4.70;99.90
35258;DHT22;21385;50.878;8.050;2022-11-11T05:02:55;4.70;99.90
35258;DHT22;21385;50.878;8.050;2022-11-11T05:05:43;4.70;99.90
35258;DHT22;21385;50.878;8.050;2022-11-11T05:08:29;4.70;99.90
35258;DHT22;21385;50.878;8.050;2022-11-11T05:11:13;4.70;99.90
35258;DHT22;21385;50.878;8.050;2022-11-11T05:13:39;4.70;99.90
35258;DHT22;21385;50.878;8.050;2022-11-11T05:16:27;4.70;99.90
35258;DHT22;21385;50.878;8.050;2022-11-11T05:19:13;4.70;99.90
35258;DHT22;21385;50.878;8.050;2022-11-11T05:24:38;4.70;99.90
35258;DHT22;21385;50.878;8.050;2022-11-11T05:27:25;4.60;99.90
35258;DHT22;21385;50.878;8.050;2022-11-11T05:29:54;4.60;99.90
35258;DHT22;21385;50.878;8.050;2022-11-11T05:32:20;4.50;99.90
35258;DHT22;21385;50.878;8.050;2022-11-11T05:34:47;4.40;99.90
35258;DHT22;21385;50.878;8.050;2022-11-11T05:37:13;4.40;99.90
35258;DHT22;21385;50.878;8.050;2022-11-11T05:39:38;4.40;99.90
35258;DHT22;21385;50.878;8.050;2022-11-11T05:42:04;4.40;99.90
35258;DHT22;21385;50.878;8.050;2022-11-11T05:44:30;4.40;99.90
35258;DHT22;21385;50.878;8.050;2022-11-11T05:46:56;4.40;99.90
35258;DHT22;21385;50.878;8.050;2022-11-11T05:49:21;4.40;99.90
35258;DHT22;21385;50.878;8.050;2022-11-11T05:51:48;4.30;99.90
35258;DHT22;21385;50.878;8.050;2022-11-11T05:54:14;4.30;99.90
35258;DHT22;21385;50.878;8.050;2022-11-11T05:56:40;4.30;99.90
35258;DHT22;21385;50.878;8.050;2022-11-11T05:59:06;4.30;99.90
35258;DHT22;21385;50.878;8.050;2022-11-11T06:01:32;4.30;99.90
35258;DHT22;21385;50.878;8.050;2022-11-11T06:03:58;4.20;99.90
35258;DHT22;21385;50.878;8.050;2022-11-11T06:06:24;4.20;99.90
35258;DHT22;21385;50.878;8.050;2022-11-11T06:08:50;4.20;99.90
35258;DHT22;21385;50.878;8.050;2022-11-11T06:11:15;4.10;99.90
35258;DHT22;21385;50.878;8.050;2022-11-11T06:13:44;4.00;99.90
35258;DHT22;21385;50.878;8.050;2022-11-11T06:16:13;4.00;99.90
35258;DHT22;21385;50.878;8.050;2022-11-11T06:18:42;4.00;99.90
35258;DHT22;21385;50.878;8.050;2022-11-11T06:21:07;4.00;99.90
35258;DHT22;21385;50.878;8.050;2022-11-11T06:23:33;4.00;99.90
35258;DHT22;21385;50.878;8.050;2022-11-11T06:25:59;4.00;99.90
35258;DHT22;21385;50.878;8.050;2022-11-11T06:28:51;4.00;99.90
35258;DHT22;21385;50.878;8.050;2022-11-11T06:31:26;4.00;99.90
35258;DHT22;21385;50.878;8.050;2022-11-11T06:33:52;4.00;99.90
35258;DHT22;21385;50.878;8.050;2022-11-11T06:36:20;3.90;99.90
35258;DHT22;21385;50.878;8.050;2022-11-11T06:38:49;3.90;99.90
35258;DHT22;21385;50.878;8.050;2022-11-11T06:41:20;3.90;99.90
35258;DHT22;21385;50.878;8.050;2022-11-11T06:43:48;3.90;99.90
35258;DHT22;21385;50.878;8.050;2022-11-11T06:46:21;3.80;99.90
35258;DHT22;21385;50.878;8.050;2022-11-11T06:48:47;3.80;99.90
35258;DHT22;21385;50.878;8.050;2022-11-11T06:51:12;3.80;99.90
35258;DHT22;21385;50.878;8.050;2022-11-11T06:53:39;3.80;99.90
35258;DHT22;21385;50.878;8.050;2022-11-11T06:56:05;3.80;99.90
35258;DHT22;21385;50.878;8.050;2022-11-11T06:58:32;3.80;99.90
35258;DHT22;21385;50.878;8.050;2022-11-11T07:00:58;3.80;99.90
35258;DHT22;21385;50.878;8.050;2022-11-11T07:03:26;3.80;99.90
35258;DHT22;21385;50.878;8.050;2022-11-11T07:05:52;3.80;99.90
35258;DHT22;21385;50.878;8.050;2022-11-11T07:08:19;3.90;99.90
35258;DHT22;21385;50.878;8.050;2022-11-11T07:10:47;3.90;99.90
35258;DHT22;21385;50.878;8.050;2022-11-11T07:13:14;3.90;99.90
35258;DHT22;21385;50.878;8.050;2022-11-11T07:15:41;3.90;99.90
35258;DHT22;21385;50.878;8.050;2022-11-11T07:18:07;4.00;99.90
35258;DHT22;21385;50.878;8.050;2022-11-11T07:20:33;4.00;99.90
35258;DHT22;21385;50.878;8.050;2022-11-11T07:22:59;4.10;99.90
35258;DHT22;21385;50.878;8.050;2022-11-11T07:25:24;4.10;99.90
35258;DHT22;21385;50.878;8.050;2022-11-11T07:27:50;4.10;99.90
35258;DHT22;21385;50.878;8.050;2022-11-11T07:30:16;4.10;99.90
35258;DHT22;21385;50.878;8.050;2022-11-11T07:32:45;4.10;99.90
35258;DHT22;21385;50.878;8.050;2022-11-11T07:35:12;4.10;99.90
35258;DHT22;21385;50.878;8.050;2022-11-11T07:37:41;4.10;99.90
35258;DHT22;21385;50.878;8.050;2022-11-11T07:40:08;4.10;99.90
35258;DHT22;21385;50.878;8.050;2022-11-11T07:42:38;4.10;99.90
35258;DHT22;21385;50.878;8.050;2022-11-11T07:45:04;4.20;99.90
35258;DHT22;21385;50.878;8.050;2022-11-11T07:47:30;4.30;99.90
35258;DHT22;21385;50.878;8.050;2022-11-11T07:49:56;4.30;99.90
35258;DHT22;21385;50.878;8.050;2022-11-11T07:52:22;4.30;99.90
35258;DHT22;21385;50.878;8.050;2022-11-11T07:54:48;4.40;99.90
35258;DHT22;21385;50.878;8.050;2022-11-11T07:57:14;4.40;99.90
35258;DHT22;21385;50.878;8.050;2022-11-11T07:59:40;4.40;99.90
35258;DHT22;21385;50.878;8.050;2022-11-11T08:02:09;4.50;99.90
35258;DHT22;21385;50.878;8.050;2022-11-11T08:04:35;4.50;99.90
35258;DHT22;21385;50.878;8.050;2022-11-11T08:07:00;4.60;99.90
35258;DHT22;21385;50.878;8.050;2022-11-11T08:09:26;4.60;99.90
35258;DHT22;21385;50.878;8.050;2022-11-11T08:11:51;4.60;99.90
35258;DHT22;21385;50.878;8.050;2022-11-11T08:14:35;4.70;99.90
35258;DHT22;21385;50.878;8.050;2022-11-11T08:17:01;4.80;99.90
35258;DHT22;21385;50.878;8.050;2022-11-11T08:19:26;4.90;99.90
35258;DHT22;21385;50.878;8.050;2022-11-11T08:21:52;5.00;99.90
35258;DHT22;21385;50.878;8.050;2022-11-11T08:24:18;5.00;99.90
35258;DHT22;21385;50.878;8.050;2022-11-11T08:26:44;5.10;99.90
35258;DHT22;21385;50.878;8.050;2022-11-11T08:29:09;5.10;99.90
35258;DHT22;21385;50.878;8.050;2022-11-11T08:31:35;5.20;99.90
35258;DHT22;21385;50.878;8.050;2022-11-11T08:34:01;5.20;99.90
35258;DHT22;21385;50.878;8.050;2022-11-11T08:36:26;5.30;99.90
35258;DHT22;21385;50.878;8.050;2022-11-11T08:38:52;5.40;99.90
35258;DHT22;21385;50.878;8.050;2022-11-11T08:41:17;5.40;99.90
35258;DHT22;21385;50.878;8.050;2022-11-11T08:43:43;5.60;99.90
35258;DHT22;21385;50.878;8.050;2022-11-11T08:46:08;5.60;99.90
35258;DHT22;21385;50.878;8.050;2022-11-11T08:48:36;5.70;99.90
35258;DHT22;21385;50.878;8.050;2022-11-11T08:51:01;5.70;99.90
35258;DHT22;21385;50.878;8.050;2022-11-11T08:53:32;5.80;99.90
35258;DHT22;21385;50.878;8.050;2022-11-11T08:56:00;5.80;99.90
35258;DHT22;21385;50.878;8.050;2022-11-11T08:58:26;5.80;99.90
35258;DHT22;21385;50.878;8.050;2022-11-11T09:00:52;5.80;99.90
35258;DHT22;21385;50.878;8.050;2022-11-11T09:03:18;5.80;99.90
35258;DHT22;21385;50.878;8.050;2022-11-11T09:05:43;5.90;99.90
35258;DHT22;21385;50.878;8.050;2022-11-11T09:08:11;5.90;99.90
35258;DHT22;21385;50.878;8.050;2022-11-11T09:10:37;5.90;99.90
35258;DHT22;21385;50.878;8.050;2022-11-11T09:13:04;6.00;99.90
35258;DHT22;21385;50.878;8.050;2022-11-11T09:15:29;6.10;99.90
35258;DHT22;21385;50.878;8.050;2022-11-11T09:17:55;6.10;99.90
35258;DHT22;21385;50.878;8.050;2022-11-11T09:20:21;6.10;99.90
35258;DHT22;21385;50.878;8.050;2022-11-11T09:22:48;6.20;99.90
35258;DHT22;21385;50.878;8.050;2022-11-11T09:25:15;6.20;99.90
35258;DHT22;21385;50.878;8.050;2022-11-11T09:27:42;6.30;99.90
35258;DHT22;21385;50.878;8.050;2022-11-11T09:30:09;6.50;99.90
35258;DHT22;21385;50.878;8.050;2022-11-11T09:32:35;6.50;99.90
35258;DHT22;21385;50.878;8.050;2022-11-11T09:35:01;6.60;99.90
35258;DHT22;21385;50.878;8.050;2022-11-11T09:37:27;6.70;99.90
35258;DHT22;21385;50.878;8.050;2022-11-11T09:39:52;6.80;99.90
35258;DHT22;21385;50.878;8.050;2022-11-11T09:42:43;7.00;99.90
35258;DHT22;21385;50.878;8.050;2022-11-11T09:48:33;7.40;99.90
35258;DHT22;21385;50.878;8.050;2022-11-11T09:51:04;7.50;99.90
35258;DHT22;21385;50.878;8.050;2022-11-11T09:53:37;7.60;99.90
35258;DHT22;21385;50.878;8.050;2022-11-11T09:56:08;7.80;99.90
35258;DHT22;21385;50.878;8.050;2022-11-11T09:58:39;8.00;99.90
35258;DHT22;21385;50.878;8.050;2022-11-11T10:01:13;8.20;99.90
35258;DHT22;21385;50.878;8.050;2022-11-11T10:03:46;8.30;99.90
35258;DHT22;21385;50.878;8.050;2022-11-11T10:06:26;8.40;99.90
35258;DHT22;21385;50.878;8.050;2022-11-11T10:09:04;8.50;99.90
35258;DHT22;21385;50.878;8.050;2022-11-11T10:14:29;8.80;99.90
35258;DHT22;21385;50.878;8.050;2022-11-11T10:17:14;9.00;99.90
35258;DHT22;21385;50.878;8.050;2022-11-11T10:24:46;9.60;99.90
35258;DHT22;21385;50.878;8.050;2022-11-11T10:27:17;9.60;99.90
35258;DHT22;21385;50.878;8.050;2022-11-11T10:29:44;9.70;99.90
35258;DHT22;21385;50.878;8.050;2022-11-11T10:32:28;9.90;99.90
35258;DHT22;21385;50.878;8.050;2022-11-11T10:35:04;10.00;99.90
35258;DHT22;21385;50.878;8.050;2022-11-11T10:37:40;10.30;99.90
35258;DHT22;21385;50.878;8.050;2022-11-11T10:42:43;10.80;99.90
35258;DHT22;21385;50.878;8.050;2022-11-11T10:45:34;11.10;99.90
35258;DHT22;21385;50.878;8.050;2022-11-11T10:48:19;11.40;99.90
35258;DHT22;21385;50.878;8.050;2022-11-11T10:50:56;11.90;99.90
35258;DHT22;21385;50.878;8.050;2022-11-11T10:53:31;12.10;99.90
35258;DHT22;21385;50.878;8.050;2022-11-11T10:59:15;12.80;99.90
35258;DHT22;21385;50.878;8.050;2022-11-11T11:01:46;12.80;99.90
35258;DHT22;21385;50.878;8.050;2022-11-11T11:04:14;12.90;99.90
35258;DHT22;21385;50.878;8.050;2022-11-11T11:06:43;13.20;99.90
35258;DHT22;21385;50.878;8.050;2022-11-11T11:09:34;13.40;99.90
35258;DHT22;21385;50.878;8.050;2022-11-11T11:12:09;13.70;99.90
35258;DHT22;21385;50.878;8.050;2022-11-11T11:14:47;14.00;99.90
35258;DHT22;21385;50.878;8.050;2022-11-11T11:17:21;14.30;99.90
35258;DHT22;21385;50.878;8.050;2022-11-11T11:20:07;14.50;99.90
35258;DHT22;21385;50.878;8.050;2022-11-11T11:22:54;14.70;99.90
35258;DHT22;21385;50.878;8.050;2022-11-11T11:25:25;14.90;99.90
35258;DHT22;21385;50.878;8.050;2022-11-11T11:27:52;15.10;99.90
35258;DHT22;21385;50.878;8.050;2022-11-11T11:30:28;15.40;99.90
35258;DHT22;21385;50.878;8.050;2022-11-11T11:33:06;15.60;99.90
35258;DHT22;21385;50.878;8.050;2022-11-11T11:38:02;15.90;99.90
35258;DHT22;21385;50.878;8.050;2022-11-11T11:40:44;16.10;99.90
35258;DHT22;21385;50.878;8.050;2022-11-11T11:43:32;16.40;99.90
35258;DHT22;21385;50.878;8.050;2022-11-11T11:46:00;17.10;99.90
35258;DHT22;21385;50.878;8.050;2022-11-11T11:56:56;18.00;99.60
35258;DHT22;21385;50.878;8.050;2022-11-11T11:59:42;18.30;98.70
35258;DHT22;21385;50.878;8.050;2022-11-11T12:21:03;19.70;92.80
35258;DHT22;21385;50.878;8.050;2022-11-11T12:23:57;19.80;92.20
35258;DHT22;21385;50.878;8.050;2022-11-11T12:26:43;20.00;92.10
35258;DHT22;21385;50.878;8.050;2022-11-11T12:35:05;20.40;89.20
35258;DHT22;21385;50.878;8.050;2022-11-11T12:37:54;20.40;90.50
35258;DHT22;21385;50.878;8.050;2022-11-11T12:43:28;20.80;86.00
35258;DHT22;21385;50.878;8.050;2022-11-11T12:49:04;21.20;80.80
35258;DHT22;21385;50.878;8.050;2022-11-11T12:51:43;21.30;81.60
35258;DHT22;21385;50.878;8.050;2022-11-11T12:54:44;21.50;83.10
35258;DHT22;21385;50.878;8.050;2022-11-11T13:00:18;21.90;77.80
35258;DHT22;21385;50.878;8.050;2022-11-11T13:08:40;22.50;69.70
35258;DHT22;21385;50.878;8.050;2022-11-11T13:16:16;23.20;67.30
35258;DHT22;21385;50.878;8.050;2022-11-11T13:21:29;23.70;66.00
35258;DHT22;21385;50.878;8.050;2022-11-11T13:23:56;23.90;62.00
35258;DHT22;21385;50.878;8.050;2022-11-11T13:26:37;24.00;61.00
35258;DHT22;21385;50.878;8.050;2022-11-11T13:32:04;24.00;61.80
35258;DHT22;21385;50.878;8.050;2022-11-11T13:34:31;24.20;58.90
35258;DHT22;21385;50.878;8.050;2022-11-11T13:39:40;24.60;56.60
35258;DHT22;21385;50.878;8.050;2022-11-11T13:42:11;24.90;57.30
35258;DHT22;21385;50.878;8.050;2022-11-11T13:44:50;24.90;55.70
35258;DHT22;21385;50.878;8.050;2022-11-11T13:47:23;24.80;55.10
35258;DHT22;21385;50.878;8.050;2022-11-11T13:49:54;24.70;54.30
35258;DHT22;21385;50.878;8.050;2022-11-11T13:52:30;24.80;55.50
35258;DHT22;21385;50.878;8.050;2022-11-11T13:55:07;25.00;56.00
35258;DHT22;21385;50.878;8.050;2022-11-11T13:57:47;25.30;54.40
35258;DHT22;21385;50.878;8.050;2022-11-11T14:00:25;25.50;53.50
35258;DHT22;21385;50.878;8.050;2022-11-11T14:05:41;25.90;54.60
35258;DHT22;21385;50.878;8.050;2022-11-11T14:08:07;25.90;54.00
35258;DHT22;21385;50.878;8.050;2022-11-11T14:15:47;26.20;54.50
35258;DHT22;21385;50.878;8.050;2022-11-11T14:20:44;26.40;53.50
35258;DHT22;21385;50.878;8.050;2022-11-11T14:33:47;26.70;47.60
35258;DHT22;21385;50.878;8.050;2022-11-11T14:36:19;26.50;49.10
35258;DHT22;21385;50.878;8.050;2022-11-11T14:49:50;26.90;47.40
35258;DHT22;21385;50.878;8.050;2022-11-11T14:52:38;26.80;45.10
35258;DHT22;21385;50.878;8.050;2022-11-11T14:57:47;26.70;44.80
35258;DHT22;21385;50.878;8.050;2022-11-11T15:00:17;26.70;41.50
35258;DHT22;21385;50.878;8.050;2022-11-11T15:02:57;26.80;42.90
35258;DHT22;21385;50.878;8.050;2022-11-11T15:05:50;26.60;42.80
35258;DHT22;21385;50.878;8.050;2022-11-11T15:11:10;25.50;47.10
35258;DHT22;21385;50.878;8.050;2022-11-11T15:26:55;21.80;55.60
35258;DHT22;21385;50.878;8.050;2022-11-11T15:35:34;20.60;61.90
35258;DHT22;21385;50.878;8.050;2022-11-11T15:38:01;20.20;61.30
35258;DHT22;21385;50.878;8.050;2022-11-11T15:40:41;19.80;62.60
35258;DHT22;21385;50.878;8.050;2022-11-11T15:43:18;19.40;64.40
35258;DHT22;21385;50.878;8.050;2022-11-11T15:45:45;18.90;66.10
35258;DHT22;21385;50.878;8.050;2022-11-11T15:48:41;18.60;67.70
35258;DHT22;21385;50.878;8.050;2022-11-11T15:51:27;18.30;69.40
35258;DHT22;21385;50.878;8.050;2022-11-11T15:53:53;17.90;70.90
35258;DHT22;21385;50.878;8.050;2022-11-11T15:56:29;17.80;72.20
35258;DHT22;21385;50.878;8.050;2022-11-11T15:58:55;17.50;73.80
35258;DHT22;21385;50.878;8.050;2022-11-11T16:01:24;17.30;75.50
35258;DHT22;21385;50.878;8.050;2022-11-11T16:03:51;17.10;76.50
35258;DHT22;21385;50.878;8.050;2022-11-11T16:06:17;16.80;77.90
35258;DHT22;21385;50.878;8.050;2022-11-11T16:08:45;16.60;80.30
35258;DHT22;21385;50.878;8.050;2022-11-11T16:11:13;16.60;99.90
35258;DHT22;21385;50.878;8.050;2022-11-11T16:13:59;16.50;94.20
35258;DHT22;21385;50.878;8.050;2022-11-11T16:16:29;16.30;94.10
35258;DHT22;21385;50.878;8.050;2022-11-11T16:19:14;16.00;94.70
35258;DHT22;21385;50.878;8.050;2022-11-11T16:21:48;15.80;94.50
35258;DHT22;21385;50.878;8.050;2022-11-11T16:24:26;15.50;94.40
35258;DHT22;21385;50.878;8.050;2022-11-11T16:26:52;15.30;95.10
35258;DHT22;21385;50.878;8.050;2022-11-11T16:29:18;15.10;95.70
35258;DHT22;21385;50.878;8.050;2022-11-11T16:31:45;14.90;96.20
35258;DHT22;21385;50.878;8.050;2022-11-11T16:39:29;14.40;97.70
35258;DHT22;21385;50.878;8.050;2022-11-11T16:42:04;14.30;98.20
35258;DHT22;21385;50.878;8.050;2022-11-11T16:47:05;14.00;99.50
35258;DHT22;21385;50.878;8.050;2022-11-11T16:49:41;13.70;99.90
35258;DHT22;21385;50.878;8.050;2022-11-11T16:57:22;13.10;99.90
35258;DHT22;21385;50.878;8.050;2022-11-11T16:59:52;13.10;99.90
35258;DHT22;21385;50.878;8.050;2022-11-11T17:02:21;13.00;99.90
35258;DHT22;21385;50.878;8.050;2022-11-11T17:04:48;12.80;99.90
35258;DHT22;21385;50.878;8.050;2022-11-11T17:12:37;12.50;99.90
35258;DHT22;21385;50.878;8.050;2022-11-11T17:15:08;12.40;99.90
35258;DHT22;21385;50.878;8.050;2022-11-11T17:17:35;12.30;99.90
35258;DHT22;21385;50.878;8.050;2022-11-11T17:22:29;12.10;99.90
35258;DHT22;21385;50.878;8.050;2022-11-11T17:24:55;12.00;99.90
35258;DHT22;21385;50.878;8.050;2022-11-11T17:27:20;11.80;99.90
35258;DHT22;21385;50.878;8.050;2022-11-11T17:29:46;11.70;99.90
35258;DHT22;21385;50.878;8.050;2022-11-11T17:32:12;11.60;99.90
35258;DHT22;21385;50.878;8.050;2022-11-11T17:34:38;11.50;99.90
35258;DHT22;21385;50.878;8.050;2022-11-11T17:37:03;11.50;99.90
35258;DHT22;21385;50.878;8.050;2022-11-11T17:39:29;11.30;99.90
35258;DHT22;21385;50.878;8.050;2022-11-11T17:41:55;11.30;99.90
35258;DHT22;21385;50.878;8.050;2022-11-11T17:44:20;11.10;99.90
35258;DHT22;21385;50.878;8.050;2022-11-11T17:46:46;11.00;99.90
35258;DHT22;21385;50.878;8.050;2022-11-11T17:49:11;10.90;99.90
35258;DHT22;21385;50.878;8.050;2022-11-11T17:51:37;10.80;99.90
35258;DHT22;21385;50.878;8.050;2022-11-11T17:54:05;10.70;99.90
35258;DHT22;21385;50.878;8.050;2022-11-11T17:56:31;10.70;99.90
35258;DHT22;21385;50.878;8.050;2022-11-11T17:58:56;10.60;99.90
35258;DHT22;21385;50.878;8.050;2022-11-11T18:01:22;10.60;99.90
35258;DHT22;21385;50.878;8.050;2022-11-11T18:03:48;10.50;99.90
35258;DHT22;21385;50.878;8.050;2022-11-11T18:06:13;10.40;99.90
35258;DHT22;21385;50.878;8.050;2022-11-11T18:08:39;10.30;99.90
35258;DHT22;21385;50.878;8.050;2022-11-11T18:11:06;10.30;99.90
35258;DHT22;21385;50.878;8.050;2022-11-11T18:13:33;10.20;99.90
35258;DHT22;21385;50.878;8.050;2022-11-11T18:15:59;10.10;99.90
35258;DHT22;21385;50.878;8.050;2022-11-11T18:18:25;10.00;99.90
35258;DHT22;21385;50.878;8.050;2022-11-11T18:20:52;10.00;99.90
35258;DHT22;21385;50.878;8.050;2022-11-11T18:23:18;10.00;99.90
35258;DHT22;21385;50.878;8.050;2022-11-11T18:25:43;9.90;99.90
35258;DHT22;21385;50.878;8.050;2022-11-11T18:28:09;9.90;99.90
35258;DHT22;21385;50.878;8.050;2022-11-11T18:30:35;9.80;99.90
35258;DHT22;21385;50.878;8.050;2022-11-11T18:33:01;9.70;99.90
35258;DHT22;21385;50.878;8.050;2022-11-11T18:35:27;9.60;99.90
35258;DHT22;21385;50.878;8.050;2022-11-11T18:37:52;9.60;99.90
35258;DHT22;21385;50.878;8.050;2022-11-11T18:40:18;9.50;99.90
35258;DHT22;21385;50.878;8.050;2022-11-11T18:42:43;9.50;99.90
35258;DHT22;21385;50.878;8.050;2022-11-11T18:45:09;9.40;99.90
35258;DHT22;21385;50.878;8.050;2022-11-11T18:47:35;9.30;99.90